Detall de PIREP

Printer-friendly versionPDF version

[2012/12/15 09:32:00]
Flight IATA:CT3202
Pilot Number:012
Company ICAO:CAT
Aircraft Type:C750/F
PAX:4
Departing Airport: LEPA
Destination Airport: LGAV
Alternate Airport:LGTS
Online: VATSIM
Route:MORSS/M085F430 UM603 ORVEX/M085F450 UM601 RUTOM UN604 ARA UB34 NEMES
Flight Level:F450
No Slew and time accel
No pause
Crash detect
Detect pilot in Cockpit between each 30 and 45 minutes
09:32 Zero fuel Weight: 22587 Lbs, Fuel Weight: 6395 Lbs
09:32 VATSIM:LEPA 150900Z VRB02KT 9999 SCT012 17/15 Q1016 NOSIG
09:32 VATSIM:LGAV 150850Z VRB01KT 9999 SCT035 SCT070 12/05 Q1028 NOSIG
09:33 VOICE CATALONIAN
09:34 Parking Brakes off
09:38 Take-off
09:38 Take off Weight: 28903 Lbs
09:38 Wind: 002º @ 002 Knots Heading: 238º
09:38 POS N39º 33´ 22´´ E002º 43´ 47´´
09:38 Gear Up: 150 Knots
09:38 Flaps:3 at 151 Knots
09:39 Flaps:2 at 159 Knots
09:39 Flaps:0 at 155 Knots
09:53 Wind:275º@062 Knots Heading: 072º Ground Speed: 546 Knots Altitude 43001 ft
10:08 Wind:289º@063 Knots Heading: 070º Ground Speed: 535 Knots Altitude 42992 ft
10:15 TOC
10:15 Fuel Weight: 5289 Lb
10:23 Wind:289º@058 Knots Heading: 112º Ground Speed: 551 Knots Altitude 45111 ft
10:38 Wind:282º@060 Knots Heading: 107º Ground Speed: 552 Knots Altitude 45229 ft
10:53 Wind:287º@055 Knots Heading: 097º Ground Speed: 549 Knots Altitude 45278 ft
11:08 Wind:298º@048 Knots Heading: 106º Ground Speed: 539 Knots Altitude 45334 ft
11:22 TOD
11:22 Fuel Weight: 4020 Lb
11:23 Wind:270º@085 Knots Heading: 111º Ground Speed: 583 Knots Altitude 42837 ft
11:38 Wind:270º@021 Knots Heading: 034º Ground Speed: 243 Knots Altitude 7680 ft
11:41 Flaps:2 at 190 Knots
11:41 Flaps:3 at 189 Knots
11:42 Flaps:4 at 156 Knots
11:42 Gear Down: 156 Knots
11:43 Flaps:5 at 146 Knots
11:46 TouchDown:Rate -99 ft/min Speed: 119 Knots
11:46 VATSIM:LGAV 151120Z VRB03KT 9999 FEW025 BKN035 12/05 Q1027 NOSIG
11:46 Land
11:46 Wind:312º@004 Knots
11:46 Heading: 033º
11:46 Flight Duration: 02:08
11:46 Landing Weight: 26342 Lbs
11:46 POS N37º 56´ 08´´ E023º 55´ 56´´
11:52 Parking brakes on
11:52 Block to Block Duration: 02:18
11:52 Final Fuel: 3694 Lbls
11:52 Spent Fuel: 2700 Lbls
11:52 Flight Length: 1062 NM
11:52 TOD Land Length: 142 NM

Exportar CSV

Powered by Drupal - Modified by Danger4k